sensor_id;sensor_type;location;lat;lon;timestamp;temperature;humidity
37274;DHT22;23161;51.250;5.554;2024-02-26T00:01:21;6.20;99.90
37274;DHT22;23161;51.250;5.554;2024-02-26T00:02:52;6.20;99.90
37274;DHT22;23161;51.250;5.554;2024-02-26T00:04:22;6.20;99.90
37274;DHT22;23161;51.250;5.554;2024-02-26T00:05:53;6.10;99.90
37274;DHT22;23161;51.250;5.554;2024-02-26T00:07:24;6.10;99.90
37274;DHT22;23161;51.250;5.554;2024-02-26T00:08:55;6.10;99.90
37274;DHT22;23161;51.250;5.554;2024-02-26T00:10:25;6.10;99.90
37274;DHT22;23161;51.250;5.554;2024-02-26T00:11:56;6.00;99.90
37274;DHT22;23161;51.250;5.554;2024-02-26T00:13:28;5.90;99.90
37274;DHT22;23161;51.250;5.554;2024-02-26T00:14:59;5.90;99.90
37274;DHT22;23161;51.250;5.554;2024-02-26T00:16:30;5.90;99.90
37274;DHT22;23161;51.250;5.554;2024-02-26T00:18:01;5.90;99.90
37274;DHT22;23161;51.250;5.554;2024-02-26T00:19:32;5.80;99.90
37274;DHT22;23161;51.250;5.554;2024-02-26T00:21:04;5.90;99.90
37274;DHT22;23161;51.250;5.554;2024-02-26T00:22:35;5.80;99.90
37274;DHT22;23161;51.250;5.554;2024-02-26T00:24:06;5.80;99.90
37274;DHT22;23161;51.250;5.554;2024-02-26T00:25:37;5.80;99.90
37274;DHT22;23161;51.250;5.554;2024-02-26T00:27:08;5.80;99.90
37274;DHT22;23161;51.250;5.554;2024-02-26T00:28:39;5.80;99.90
37274;DHT22;23161;51.250;5.554;2024-02-26T00:30:10;5.80;99.90
37274;DHT22;23161;51.250;5.554;2024-02-26T00:31:41;5.80;99.90
37274;DHT22;23161;51.250;5.554;2024-02-26T00:33:11;5.70;99.90
37274;DHT22;23161;51.250;5.554;2024-02-26T00:34:42;5.70;99.90
37274;DHT22;23161;51.250;5.554;2024-02-26T00:36:13;5.70;99.90
37274;DHT22;23161;51.250;5.554;2024-02-26T00:37:44;5.60;99.90
37274;DHT22;23161;51.250;5.554;2024-02-26T00:39:15;5.70;99.90
37274;DHT22;23161;51.250;5.554;2024-02-26T00:40:45;5.60;99.90
37274;DHT22;23161;51.250;5.554;2024-02-26T00:42:16;5.60;99.90
37274;DHT22;23161;51.250;5.554;2024-02-26T00:43:47;5.60;99.90
37274;DHT22;23161;51.250;5.554;2024-02-26T00:45:18;5.70;99.90
37274;DHT22;23161;51.250;5.554;2024-02-26T00:46:48;5.60;99.90
37274;DHT22;23161;51.250;5.554;2024-02-26T00:48:19;5.60;99.90
37274;DHT22;23161;51.250;5.554;2024-02-26T00:49:50;5.60;99.90
37274;DHT22;23161;51.250;5.554;2024-02-26T00:51:21;5.50;99.90
37274;DHT22;23161;51.250;5.554;2024-02-26T00:52:52;5.50;99.90
37274;DHT22;23161;51.250;5.554;2024-02-26T00:54:22;5.60;99.90
37274;DHT22;23161;51.250;5.554;2024-02-26T00:55:53;5.50;99.90
37274;DHT22;23161;51.250;5.554;2024-02-26T00:57:24;5.60;99.90
37274;DHT22;23161;51.250;5.554;2024-02-26T00:58:55;5.50;99.90
37274;DHT22;23161;51.250;5.554;2024-02-26T01:00:26;5.50;99.90
37274;DHT22;23161;51.250;5.554;2024-02-26T01:01:56;5.60;99.90
37274;DHT22;23161;51.250;5.554;2024-02-26T01:03:29;5.60;99.90
37274;DHT22;23161;51.250;5.554;2024-02-26T01:04:59;5.50;99.90
37274;DHT22;23161;51.250;5.554;2024-02-26T01:06:30;5.50;99.90
37274;DHT22;23161;51.250;5.554;2024-02-26T01:08:01;5.50;99.90
37274;DHT22;23161;51.250;5.554;2024-02-26T01:09:32;5.50;99.90
37274;DHT22;23161;51.250;5.554;2024-02-26T01:11:03;5.50;99.90
37274;DHT22;23161;51.250;5.554;2024-02-26T01:12:34;5.50;99.90
37274;DHT22;23161;51.250;5.554;2024-02-26T01:14:05;5.50;99.90
37274;DHT22;23161;51.250;5.554;2024-02-26T01:15:36;5.50;99.90
37274;DHT22;23161;51.250;5.554;2024-02-26T01:17:07;5.40;99.90
37274;DHT22;23161;51.250;5.554;2024-02-26T01:18:38;5.40;99.90
37274;DHT22;23161;51.250;5.554;2024-02-26T01:20:09;5.40;99.90
37274;DHT22;23161;51.250;5.554;2024-02-26T01:21:40;5.50;99.90
37274;DHT22;23161;51.250;5.554;2024-02-26T01:23:12;5.50;99.90
37274;DHT22;23161;51.250;5.554;2024-02-26T01:24:43;5.50;99.90
37274;DHT22;23161;51.250;5.554;2024-02-26T01:26:14;5.40;99.90
37274;DHT22;23161;51.250;5.554;2024-02-26T01:27:44;5.50;99.90
37274;DHT22;23161;51.250;5.554;2024-02-26T01:29:15;5.50;99.90
37274;DHT22;23161;51.250;5.554;2024-02-26T01:30:46;5.50;99.90
37274;DHT22;23161;51.250;5.554;2024-02-26T01:32:17;5.50;99.90
37274;DHT22;23161;51.250;5.554;2024-02-26T01:33:47;5.40;99.90
37274;DHT22;23161;51.250;5.554;2024-02-26T01:35:18;5.40;99.90
37274;DHT22;23161;51.250;5.554;2024-02-26T01:36:50;5.40;99.90
37274;DHT22;23161;51.250;5.554;2024-02-26T01:38:20;5.40;99.90
37274;DHT22;23161;51.250;5.554;2024-02-26T01:39:51;5.40;99.90
37274;DHT22;23161;51.250;5.554;2024-02-26T01:41:22;5.40;99.90
37274;DHT22;23161;51.250;5.554;2024-02-26T01:42:53;5.40;99.90
37274;DHT22;23161;51.250;5.554;2024-02-26T01:44:26;5.40;99.90
37274;DHT22;23161;51.250;5.554;2024-02-26T01:45:57;5.40;99.90
37274;DHT22;23161;51.250;5.554;2024-02-26T01:47:28;5.30;99.90
37274;DHT22;23161;51.250;5.554;2024-02-26T01:48:59;5.30;99.90
37274;DHT22;23161;51.250;5.554;2024-02-26T01:50:31;5.40;99.90
37274;DHT22;23161;51.250;5.554;2024-02-26T01:52:03;5.40;99.90
37274;DHT22;23161;51.250;5.554;2024-02-26T01:53:35;5.40;99.90
37274;DHT22;23161;51.250;5.554;2024-02-26T01:55:06;5.40;99.90
37274;DHT22;23161;51.250;5.554;2024-02-26T01:56:39;5.30;99.90
37274;DHT22;23161;51.250;5.554;2024-02-26T01:58:11;5.30;99.90
37274;DHT22;23161;51.250;5.554;2024-02-26T01:59:42;5.30;99.90
37274;DHT22;23161;51.250;5.554;2024-02-26T02:01:15;5.30;99.90
37274;DHT22;23161;51.250;5.554;2024-02-26T02:02:46;5.40;99.90
37274;DHT22;23161;51.250;5.554;2024-02-26T02:04:18;5.20;99.90
37274;DHT22;23161;51.250;5.554;2024-02-26T02:05:49;5.30;99.90
37274;DHT22;23161;51.250;5.554;2024-02-26T02:07:21;5.30;99.90
37274;DHT22;23161;51.250;5.554;2024-02-26T02:08:56;5.20;99.90
37274;DHT22;23161;51.250;5.554;2024-02-26T02:10:27;5.30;99.90
37274;DHT22;23161;51.250;5.554;2024-02-26T02:12:00;5.30;99.90
37274;DHT22;23161;51.250;5.554;2024-02-26T02:13:31;5.30;99.90
37274;DHT22;23161;51.250;5.554;2024-02-26T02:15:02;5.20;99.90
37274;DHT22;23161;51.250;5.554;2024-02-26T02:16:33;5.20;99.90
37274;DHT22;23161;51.250;5.554;2024-02-26T02:18:04;5.30;99.90
37274;DHT22;23161;51.250;5.554;2024-02-26T02:19:35;5.30;99.90
37274;DHT22;23161;51.250;5.554;2024-02-26T02:21:06;5.30;99.90
37274;DHT22;23161;51.250;5.554;2024-02-26T02:22:37;5.20;99.90
37274;DHT22;23161;51.250;5.554;2024-02-26T02:24:09;5.30;99.90
37274;DHT22;23161;51.250;5.554;2024-02-26T02:25:40;5.20;99.90
37274;DHT22;23161;51.250;5.554;2024-02-26T02:27:10;5.20;99.90
37274;DHT22;23161;51.250;5.554;2024-02-26T02:28:41;5.30;99.90
37274;DHT22;23161;51.250;5.554;2024-02-26T02:30:12;5.30;99.90
37274;DHT22;23161;51.250;5.554;2024-02-26T02:31:43;5.30;99.90
37274;DHT22;23161;51.250;5.554;2024-02-26T02:33:15;5.20;99.90
37274;DHT22;23161;51.250;5.554;2024-02-26T02:34:46;5.30;99.90
37274;DHT22;23161;51.250;5.554;2024-02-26T02:36:17;5.30;99.90
37274;DHT22;23161;51.250;5.554;2024-02-26T02:37:49;5.30;99.90
37274;DHT22;23161;51.250;5.554;2024-02-26T02:39:20;5.20;99.90
37274;DHT22;23161;51.250;5.554;2024-02-26T02:40:52;5.20;99.90
37274;DHT22;23161;51.250;5.554;2024-02-26T02:42:23;5.30;99.90
37274;DHT22;23161;51.250;5.554;2024-02-26T02:43:54;5.30;99.90
37274;DHT22;23161;51.250;5.554;2024-02-26T02:45:24;5.30;99.90
37274;DHT22;23161;51.250;5.554;2024-02-26T02:46:55;5.30;99.90
37274;DHT22;23161;51.250;5.554;2024-02-26T02:48:26;5.30;99.90
37274;DHT22;23161;51.250;5.554;2024-02-26T02:49:57;5.30;99.90
37274;DHT22;23161;51.250;5.554;2024-02-26T02:51:27;5.30;99.90
37274;DHT22;23161;51.250;5.554;2024-02-26T02:52:58;5.20;99.90
37274;DHT22;23161;51.250;5.554;2024-02-26T02:54:29;5.30;99.90
37274;DHT22;23161;51.250;5.554;2024-02-26T02:56:00;5.30;99.90
37274;DHT22;23161;51.250;5.554;2024-02-26T02:57:31;5.30;99.90
37274;DHT22;23161;51.250;5.554;2024-02-26T02:59:03;5.30;99.90
37274;DHT22;23161;51.250;5.554;2024-02-26T03:00:34;5.30;99.90
37274;DHT22;23161;51.250;5.554;2024-02-26T03:02:05;5.30;99.90
37274;DHT22;23161;51.250;5.554;2024-02-26T03:03:37;5.30;99.90
37274;DHT22;23161;51.250;5.554;2024-02-26T03:05:08;5.30;99.90
37274;DHT22;23161;51.250;5.554;2024-02-26T03:06:39;5.30;99.90
37274;DHT22;23161;51.250;5.554;2024-02-26T03:08:09;5.30;99.90
37274;DHT22;23161;51.250;5.554;2024-02-26T03:09:40;5.30;99.90
37274;DHT22;23161;51.250;5.554;2024-02-26T03:11:14;5.30;99.90
37274;DHT22;23161;51.250;5.554;2024-02-26T03:12:49;5.30;99.90
37274;DHT22;23161;51.250;5.554;2024-02-26T03:14:19;5.30;99.90
37274;DHT22;23161;51.250;5.554;2024-02-26T03:15:50;5.30;99.90
37274;DHT22;23161;51.250;5.554;2024-02-26T03:17:21;5.30;99.90
37274;DHT22;23161;51.250;5.554;2024-02-26T03:18:54;5.20;99.90
37274;DHT22;23161;51.250;5.554;2024-02-26T03:20:25;5.30;99.90
37274;DHT22;23161;51.250;5.554;2024-02-26T03:21:56;5.20;99.90
37274;DHT22;23161;51.250;5.554;2024-02-26T03:23:26;5.20;99.90
37274;DHT22;23161;51.250;5.554;2024-02-26T03:24:57;5.20;99.90
37274;DHT22;23161;51.250;5.554;2024-02-26T03:26:28;5.20;99.90
37274;DHT22;23161;51.250;5.554;2024-02-26T03:27:59;5.20;99.90
37274;DHT22;23161;51.250;5.554;2024-02-26T03:29:29;5.20;99.90
37274;DHT22;23161;51.250;5.554;2024-02-26T03:31:01;5.20;99.90
37274;DHT22;23161;51.250;5.554;2024-02-26T03:32:32;5.20;99.90
37274;DHT22;23161;51.250;5.554;2024-02-26T03:34:03;5.20;99.90
37274;DHT22;23161;51.250;5.554;2024-02-26T03:35:34;5.20;99.90
37274;DHT22;23161;51.250;5.554;2024-02-26T03:37:05;5.20;99.90
37274;DHT22;23161;51.250;5.554;2024-02-26T03:38:37;5.20;99.90
37274;DHT22;23161;51.250;5.554;2024-02-26T03:40:08;5.10;99.90
37274;DHT22;23161;51.250;5.554;2024-02-26T03:41:39;5.20;99.90
37274;DHT22;23161;51.250;5.554;2024-02-26T03:43:10;5.20;99.90
37274;DHT22;23161;51.250;5.554;2024-02-26T03:44:41;5.20;99.90
37274;DHT22;23161;51.250;5.554;2024-02-26T03:46:12;5.20;99.90
37274;DHT22;23161;51.250;5.554;2024-02-26T03:47:44;5.20;99.90
37274;DHT22;23161;51.250;5.554;2024-02-26T03:49:14;5.20;99.90
37274;DHT22;23161;51.250;5.554;2024-02-26T03:50:45;5.20;99.90
37274;DHT22;23161;51.250;5.554;2024-02-26T03:52:16;5.20;99.90
37274;DHT22;23161;51.250;5.554;2024-02-26T03:53:47;5.20;99.90
37274;DHT22;23161;51.250;5.554;2024-02-26T03:55:18;5.20;99.90
37274;DHT22;23161;51.250;5.554;2024-02-26T03:56:51;5.20;99.90
37274;DHT22;23161;51.250;5.554;2024-02-26T03:58:22;5.20;99.90
37274;DHT22;23161;51.250;5.554;2024-02-26T03:59:53;5.20;99.90
37274;DHT22;23161;51.250;5.554;2024-02-26T04:01:24;5.10;99.90
37274;DHT22;23161;51.250;5.554;2024-02-26T04:02:55;5.10;99.90
37274;DHT22;23161;51.250;5.554;2024-02-26T04:04:25;5.10;99.90
37274;DHT22;23161;51.250;5.554;2024-02-26T04:05:56;5.10;99.90
37274;DHT22;23161;51.250;5.554;2024-02-26T04:07:27;5.10;99.90
37274;DHT22;23161;51.250;5.554;2024-02-26T04:08:58;5.10;99.90
37274;DHT22;23161;51.250;5.554;2024-02-26T04:10:28;5.10;99.90
37274;DHT22;23161;51.250;5.554;2024-02-26T04:11:59;5.10;99.90
37274;DHT22;23161;51.250;5.554;2024-02-26T04:13:30;5.10;99.90
37274;DHT22;23161;51.250;5.554;2024-02-26T04:15:01;5.10;99.90
37274;DHT22;23161;51.250;5.554;2024-02-26T04:16:32;5.10;99.90
37274;DHT22;23161;51.250;5.554;2024-02-26T04:18:03;5.10;99.90
37274;DHT22;23161;51.250;5.554;2024-02-26T04:19:33;5.10;99.90
37274;DHT22;23161;51.250;5.554;2024-02-26T04:21:05;5.10;99.90
37274;DHT22;23161;51.250;5.554;2024-02-26T04:22:37;5.10;99.90
37274;DHT22;23161;51.250;5.554;2024-02-26T04:24:08;5.10;99.90
37274;DHT22;23161;51.250;5.554;2024-02-26T04:25:39;5.10;99.90
37274;DHT22;23161;51.250;5.554;2024-02-26T04:27:09;5.00;99.90
37274;DHT22;23161;51.250;5.554;2024-02-26T04:28:40;5.00;99.90
37274;DHT22;23161;51.250;5.554;2024-02-26T04:30:11;5.00;99.90
37274;DHT22;23161;51.250;5.554;2024-02-26T04:33:13;5.00;99.90
37274;DHT22;23161;51.250;5.554;2024-02-26T04:34:44;5.00;99.90
37274;DHT22;23161;51.250;5.554;2024-02-26T04:36:15;5.00;99.90
37274;DHT22;23161;51.250;5.554;2024-02-26T04:37:46;4.90;99.90
37274;DHT22;23161;51.250;5.554;2024-02-26T04:39:17;5.00;99.90
37274;DHT22;23161;51.250;5.554;2024-02-26T04:40:48;5.00;99.90
37274;DHT22;23161;51.250;5.554;2024-02-26T04:42:19;5.00;99.90
37274;DHT22;23161;51.250;5.554;2024-02-26T04:43:50;5.00;99.90
37274;DHT22;23161;51.250;5.554;2024-02-26T04:45:20;5.00;99.90
37274;DHT22;23161;51.250;5.554;2024-02-26T04:46:51;5.00;99.90
37274;DHT22;23161;51.250;5.554;2024-02-26T04:48:22;5.00;99.90
37274;DHT22;23161;51.250;5.554;2024-02-26T04:49:53;4.90;99.90
37274;DHT22;23161;51.250;5.554;2024-02-26T04:51:24;4.90;99.90
37274;DHT22;23161;51.250;5.554;2024-02-26T04:52:55;4.90;99.90
37274;DHT22;23161;51.250;5.554;2024-02-26T04:54:26;5.00;99.90
37274;DHT22;23161;51.250;5.554;2024-02-26T04:55:56;4.90;99.90
37274;DHT22;23161;51.250;5.554;2024-02-26T04:57:27;4.90;99.90
37274;DHT22;23161;51.250;5.554;2024-02-26T04:58:58;4.90;99.90
37274;DHT22;23161;51.250;5.554;2024-02-26T05:00:29;4.90;99.90
37274;DHT22;23161;51.250;5.554;2024-02-26T05:02:00;4.90;99.90
37274;DHT22;23161;51.250;5.554;2024-02-26T05:03:31;4.90;99.90
37274;DHT22;23161;51.250;5.554;2024-02-26T05:05:02;4.90;99.90
37274;DHT22;23161;51.250;5.554;2024-02-26T05:06:33;4.90;99.90
37274;DHT22;23161;51.250;5.554;2024-02-26T05:08:04;4.90;99.90
37274;DHT22;23161;51.250;5.554;2024-02-26T05:09:35;4.90;99.90
37274;DHT22;23161;51.250;5.554;2024-02-26T05:11:05;4.90;99.90
37274;DHT22;23161;51.250;5.554;2024-02-26T05:12:36;4.90;99.90
37274;DHT22;23161;51.250;5.554;2024-02-26T05:14:08;4.90;99.90
37274;DHT22;23161;51.250;5.554;2024-02-26T05:15:39;4.80;99.90
37274;DHT22;23161;51.250;5.554;2024-02-26T05:17:09;4.80;99.90
37274;DHT22;23161;51.250;5.554;2024-02-26T05:18:40;4.80;99.90
37274;DHT22;23161;51.250;5.554;2024-02-26T05:20:11;4.80;99.90
37274;DHT22;23161;51.250;5.554;2024-02-26T05:21:42;4.90;99.90
37274;DHT22;23161;51.250;5.554;2024-02-26T05:23:14;4.80;99.90
37274;DHT22;23161;51.250;5.554;2024-02-26T05:24:45;4.80;99.90
37274;DHT22;23161;51.250;5.554;2024-02-26T05:26:24;4.80;99.90
37274;DHT22;23161;51.250;5.554;2024-02-26T05:27:55;4.80;99.90
37274;DHT22;23161;51.250;5.554;2024-02-26T05:29:26;4.80;99.90
37274;DHT22;23161;51.250;5.554;2024-02-26T05:30:56;4.80;99.90
37274;DHT22;23161;51.250;5.554;2024-02-26T05:32:27;4.80;99.90
37274;DHT22;23161;51.250;5.554;2024-02-26T05:33:58;4.80;99.90
37274;DHT22;23161;51.250;5.554;2024-02-26T05:35:29;4.80;99.90
37274;DHT22;23161;51.250;5.554;2024-02-26T05:36:59;4.80;99.90
37274;DHT22;23161;51.250;5.554;2024-02-26T05:38:30;4.80;99.90
37274;DHT22;23161;51.250;5.554;2024-02-26T05:40:02;4.90;99.90
37274;DHT22;23161;51.250;5.554;2024-02-26T05:41:35;4.80;99.90
37274;DHT22;23161;51.250;5.554;2024-02-26T05:43:06;4.80;99.90
37274;DHT22;23161;51.250;5.554;2024-02-26T05:44:37;5.00;99.90
37274;DHT22;23161;51.250;5.554;2024-02-26T05:46:07;4.80;99.90
37274;DHT22;23161;51.250;5.554;2024-02-26T05:47:39;4.80;99.90
37274;DHT22;23161;51.250;5.554;2024-02-26T05:49:13;4.80;99.90
37274;DHT22;23161;51.250;5.554;2024-02-26T05:50:43;4.80;99.90
37274;DHT22;23161;51.250;5.554;2024-02-26T05:52:14;4.80;99.90
37274;DHT22;23161;51.250;5.554;2024-02-26T05:53:45;4.80;99.90
37274;DHT22;23161;51.250;5.554;2024-02-26T05:55:17;4.80;99.90
37274;DHT22;23161;51.250;5.554;2024-02-26T05:56:48;4.80;99.90
37274;DHT22;23161;51.250;5.554;2024-02-26T05:58:19;4.80;99.90
37274;DHT22;23161;51.250;5.554;2024-02-26T05:59:49;4.80;99.90
37274;DHT22;23161;51.250;5.554;2024-02-26T06:01:20;4.80;99.90
37274;DHT22;23161;51.250;5.554;2024-02-26T06:02:51;4.80;99.90
37274;DHT22;23161;51.250;5.554;2024-02-26T06:04:22;4.80;99.90
37274;DHT22;23161;51.250;5.554;2024-02-26T06:05:53;4.80;99.90
37274;DHT22;23161;51.250;5.554;2024-02-26T06:07:24;4.80;99.90
37274;DHT22;23161;51.250;5.554;2024-02-26T06:08:55;4.80;99.90
37274;DHT22;23161;51.250;5.554;2024-02-26T06:10:25;4.80;99.90
37274;DHT22;23161;51.250;5.554;2024-02-26T06:11:56;4.80;99.90
37274;DHT22;23161;51.250;5.554;2024-02-26T06:13:27;4.80;99.90
37274;DHT22;23161;51.250;5.554;2024-02-26T06:14:58;4.80;99.90
37274;DHT22;23161;51.250;5.554;2024-02-26T06:16:31;4.80;99.90
37274;DHT22;23161;51.250;5.554;2024-02-26T06:18:02;4.80;99.90
37274;DHT22;23161;51.250;5.554;2024-02-26T06:19:33;4.80;99.90
37274;DHT22;23161;51.250;5.554;2024-02-26T06:21:04;4.80;99.90
37274;DHT22;23161;51.250;5.554;2024-02-26T06:22:35;4.80;99.90
37274;DHT22;23161;51.250;5.554;2024-02-26T06:24:06;4.80;99.90
37274;DHT22;23161;51.250;5.554;2024-02-26T06:25:37;4.80;99.90
37274;DHT22;23161;51.250;5.554;2024-02-26T06:27:07;4.80;99.90
37274;DHT22;23161;51.250;5.554;2024-02-26T06:28:39;4.80;99.90
37274;DHT22;23161;51.250;5.554;2024-02-26T06:30:11;4.80;99.90
37274;DHT22;23161;51.250;5.554;2024-02-26T06:31:42;4.80;99.90
37274;DHT22;23161;51.250;5.554;2024-02-26T06:33:13;4.80;99.90
37274;DHT22;23161;51.250;5.554;2024-02-26T06:34:44;4.80;99.90
37274;DHT22;23161;51.250;5.554;2024-02-26T06:36:18;4.80;99.90
37274;DHT22;23161;51.250;5.554;2024-02-26T06:37:49;4.70;99.90
37274;DHT22;23161;51.250;5.554;2024-02-26T06:39:23;4.80;99.90
37274;DHT22;23161;51.250;5.554;2024-02-26T06:40:53;4.90;99.90
37274;DHT22;23161;51.250;5.554;2024-02-26T06:42:24;4.80;99.90
37274;DHT22;23161;51.250;5.554;2024-02-26T06:43:55;4.70;99.90
37274;DHT22;23161;51.250;5.554;2024-02-26T06:45:26;4.80;99.90
37274;DHT22;23161;51.250;5.554;2024-02-26T06:47:00;4.80;99.90
37274;DHT22;23161;51.250;5.554;2024-02-26T06:48:31;4.70;99.90
37274;DHT22;23161;51.250;5.554;2024-02-26T06:50:03;4.80;99.90
37274;DHT22;23161;51.250;5.554;2024-02-26T06:51:34;4.80;99.90
37274;DHT22;23161;51.250;5.554;2024-02-26T06:53:04;4.80;99.90
37274;DHT22;23161;51.250;5.554;2024-02-26T06:54:37;4.80;99.90
37274;DHT22;23161;51.250;5.554;2024-02-26T06:56:08;4.80;99.90
37274;DHT22;23161;51.250;5.554;2024-02-26T06:57:39;4.80;99.90
37274;DHT22;23161;51.250;5.554;2024-02-26T06:59:09;4.80;99.90
37274;DHT22;23161;51.250;5.554;2024-02-26T07:00:40;4.80;99.90
37274;DHT22;23161;51.250;5.554;2024-02-26T07:02:11;4.70;99.90
37274;DHT22;23161;51.250;5.554;2024-02-26T07:03:42;4.80;99.90
37274;DHT22;23161;51.250;5.554;2024-02-26T07:05:13;4.80;99.90
37274;DHT22;23161;51.250;5.554;2024-02-26T07:06:44;4.80;99.90
37274;DHT22;23161;51.250;5.554;2024-02-26T07:08:17;4.80;99.90
37274;DHT22;23161;51.250;5.554;2024-02-26T07:09:47;4.80;99.90
37274;DHT22;23161;51.250;5.554;2024-02-26T07:11:18;4.80;99.90
37274;DHT22;23161;51.250;5.554;2024-02-26T07:12:50;4.80;99.90
37274;DHT22;23161;51.250;5.554;2024-02-26T07:14:21;4.80;99.90
37274;DHT22;23161;51.250;5.554;2024-02-26T07:15:51;4.90;99.90
37274;DHT22;23161;51.250;5.554;2024-02-26T07:17:22;4.80;99.90
37274;DHT22;23161;51.250;5.554;2024-02-26T07:18:53;4.80;99.90
37274;DHT22;23161;51.250;5.554;2024-02-26T07:20:24;4.80;99.90
37274;DHT22;23161;51.250;5.554;2024-02-26T07:21:55;4.80;99.90
37274;DHT22;23161;51.250;5.554;2024-02-26T07:23:26;4.80;99.90
37274;DHT22;23161;51.250;5.554;2024-02-26T07:24:56;4.80;99.90
37274;DHT22;23161;51.250;5.554;2024-02-26T07:26:27;4.80;99.90
37274;DHT22;23161;51.250;5.554;2024-02-26T07:28:02;4.80;99.90
37274;DHT22;23161;51.250;5.554;2024-02-26T07:29:39;4.90;99.90
37274;DHT22;23161;51.250;5.554;2024-02-26T07:31:10;4.80;99.90
37274;DHT22;23161;51.250;5.554;2024-02-26T07:32:42;4.80;99.90
37274;DHT22;23161;51.250;5.554;2024-02-26T07:34:12;4.90;99.90
37274;DHT22;23161;51.250;5.554;2024-02-26T07:35:44;4.90;99.90
37274;DHT22;23161;51.250;5.554;2024-02-26T07:37:14;4.90;99.90
37274;DHT22;23161;51.250;5.554;2024-02-26T07:38:45;4.90;99.90
37274;DHT22;23161;51.250;5.554;2024-02-26T07:40:16;4.90;99.90
37274;DHT22;23161;51.250;5.554;2024-02-26T07:41:47;4.90;99.90
37274;DHT22;23161;51.250;5.554;2024-02-26T07:43:20;4.90;99.90
37274;DHT22;23161;51.250;5.554;2024-02-26T07:44:51;5.00;99.90
37274;DHT22;23161;51.250;5.554;2024-02-26T07:46:22;4.90;99.90
37274;DHT22;23161;51.250;5.554;2024-02-26T07:47:52;5.00;99.90
37274;DHT22;23161;51.250;5.554;2024-02-26T07:49:23;4.90;99.90
37274;DHT22;23161;51.250;5.554;2024-02-26T07:50:54;5.00;99.90
37274;DHT22;23161;51.250;5.554;2024-02-26T07:52:25;5.00;99.90
37274;DHT22;23161;51.250;5.554;2024-02-26T07:53:56;5.00;99.90
37274;DHT22;23161;51.250;5.554;2024-02-26T07:55:26;5.00;99.90
37274;DHT22;23161;51.250;5.554;2024-02-26T07:56:57;4.90;99.90
37274;DHT22;23161;51.250;5.554;2024-02-26T07:58:28;5.00;99.90
37274;DHT22;23161;51.250;5.554;2024-02-26T08:00:00;5.00;99.90
37274;DHT22;23161;51.250;5.554;2024-02-26T08:01:30;5.10;99.90
37274;DHT22;23161;51.250;5.554;2024-02-26T08:03:01;5.00;99.90
37274;DHT22;23161;51.250;5.554;2024-02-26T08:04:32;5.00;99.90
37274;DHT22;23161;51.250;5.554;2024-02-26T08:06:03;5.00;99.90
37274;DHT22;23161;51.250;5.554;2024-02-26T08:07:34;5.00;99.90
37274;DHT22;23161;51.250;5.554;2024-02-26T08:09:05;5.00;99.90
37274;DHT22;23161;51.250;5.554;2024-02-26T08:10:36;5.20;99.90
37274;DHT22;23161;51.250;5.554;2024-02-26T08:12:07;5.00;99.90
37274;DHT22;23161;51.250;5.554;2024-02-26T08:13:37;5.00;99.90
37274;DHT22;23161;51.250;5.554;2024-02-26T08:15:08;5.00;99.90
37274;DHT22;23161;51.250;5.554;2024-02-26T08:16:39;5.00;99.90
37274;DHT22;23161;51.250;5.554;2024-02-26T08:18:10;5.00;99.90
37274;DHT22;23161;51.250;5.554;2024-02-26T08:19:41;5.00;99.90
37274;DHT22;23161;51.250;5.554;2024-02-26T08:21:12;5.00;99.90
37274;DHT22;23161;51.250;5.554;2024-02-26T08:22:43;5.00;99.90
37274;DHT22;23161;51.250;5.554;2024-02-26T08:24:14;5.00;99.90
37274;DHT22;23161;51.250;5.554;2024-02-26T08:25:44;5.00;99.90
37274;DHT22;23161;51.250;5.554;2024-02-26T08:27:15;5.00;99.90
37274;DHT22;23161;51.250;5.554;2024-02-26T08:28:46;5.00;99.90
37274;DHT22;23161;51.250;5.554;2024-02-26T08:30:18;5.10;99.90
37274;DHT22;23161;51.250;5.554;2024-02-26T08:31:49;5.00;99.90
37274;DHT22;23161;51.250;5.554;2024-02-26T08:33:20;5.10;99.90
37274;DHT22;23161;51.250;5.554;2024-02-26T08:34:51;5.10;99.90
37274;DHT22;23161;51.250;5.554;2024-02-26T08:36:22;5.10;99.90
37274;DHT22;23161;51.250;5.554;2024-02-26T08:37:53;5.10;99.90
37274;DHT22;23161;51.250;5.554;2024-02-26T08:39:23;5.10;99.90
37274;DHT22;23161;51.250;5.554;2024-02-26T08:40:56;5.10;99.90
37274;DHT22;23161;51.250;5.554;2024-02-26T08:42:27;5.10;99.90
37274;DHT22;23161;51.250;5.554;2024-02-26T08:43:57;5.00;99.90
37274;DHT22;23161;51.250;5.554;2024-02-26T08:45:28;5.10;99.90
37274;DHT22;23161;51.250;5.554;2024-02-26T08:46:59;5.00;99.90
37274;DHT22;23161;51.250;5.554;2024-02-26T08:48:30;5.10;99.90
37274;DHT22;23161;51.250;5.554;2024-02-26T08:50:01;5.10;99.90
37274;DHT22;23161;51.250;5.554;2024-02-26T08:51:31;5.10;99.90
37274;DHT22;23161;51.250;5.554;2024-02-26T08:53:02;5.10;99.90
37274;DHT22;23161;51.250;5.554;2024-02-26T08:54:34;5.10;99.90
37274;DHT22;23161;51.250;5.554;2024-02-26T08:56:05;5.10;99.90
37274;DHT22;23161;51.250;5.554;2024-02-26T08:57:36;5.10;99.90
37274;DHT22;23161;51.250;5.554;2024-02-26T08:59:08;5.00;99.90
37274;DHT22;23161;51.250;5.554;2024-02-26T09:00:39;5.10;99.90
37274;DHT22;23161;51.250;5.554;2024-02-26T09:02:10;5.10;99.90
37274;DHT22;23161;51.250;5.554;2024-02-26T09:03:41;5.10;99.90
37274;DHT22;23161;51.250;5.554;2024-02-26T09:05:12;5.10;99.90
37274;DHT22;23161;51.250;5.554;2024-02-26T09:06:42;5.10;99.90
37274;DHT22;23161;51.250;5.554;2024-02-26T09:08:13;5.10;99.90
37274;DHT22;23161;51.250;5.554;2024-02-26T09:09:44;5.10;99.90
37274;DHT22;23161;51.250;5.554;2024-02-26T09:11:15;5.00;99.90
37274;DHT22;23161;51.250;5.554;2024-02-26T09:12:46;5.00;99.90
37274;DHT22;23161;51.250;5.554;2024-02-26T09:14:17;5.00;99.90
37274;DHT22;23161;51.250;5.554;2024-02-26T09:15:48;5.00;99.90
37274;DHT22;23161;51.250;5.554;2024-02-26T09:17:19;5.10;99.90
37274;DHT22;23161;51.250;5.554;2024-02-26T09:18:50;5.10;99.90
37274;DHT22;23161;51.250;5.554;2024-02-26T09:20:21;5.10;99.90
37274;DHT22;23161;51.250;5.554;2024-02-26T09:21:52;5.00;99.90
37274;DHT22;23161;51.250;5.554;2024-02-26T09:23:25;5.00;99.90
37274;DHT22;23161;51.250;5.554;2024-02-26T09:24:55;5.00;99.90
37274;DHT22;23161;51.250;5.554;2024-02-26T09:26:26;5.00;99.90
37274;DHT22;23161;51.250;5.554;2024-02-26T09:27:57;5.00;99.90
37274;DHT22;23161;51.250;5.554;2024-02-26T09:29:28;5.00;99.90
37274;DHT22;23161;51.250;5.554;2024-02-26T09:30:59;5.00;99.90
37274;DHT22;23161;51.250;5.554;2024-02-26T09:32:30;5.00;99.90
37274;DHT22;23161;51.250;5.554;2024-02-26T09:34:01;5.00;99.90
37274;DHT22;23161;51.250;5.554;2024-02-26T09:37:03;5.00;99.90
37274;DHT22;23161;51.250;5.554;2024-02-26T09:38:33;5.00;99.90
37274;DHT22;23161;51.250;5.554;2024-02-26T09:40:09;5.00;99.90
37274;DHT22;23161;51.250;5.554;2024-02-26T09:41:42;5.00;99.90
37274;DHT22;23161;51.250;5.554;2024-02-26T09:43:14;5.00;99.90
37274;DHT22;23161;51.250;5.554;2024-02-26T09:44:46;5.00;99.90
37274;DHT22;23161;51.250;5.554;2024-02-26T09:46:19;5.00;99.90
37274;DHT22;23161;51.250;5.554;2024-02-26T09:47:50;5.00;99.90